Terminal Aerodrome Forecast
Issued by NWS

Home | Current Version | Previous Version | Text Only | Print | Product List | Glossary On
Versions: 1 2 3 4 5 6 7 8 9 10 11 12 13 14
000
FTUS44 KBMX 220500 RRA
TAFTCL
TAF
KTCL 220540Z 2206/2306 33005KT P6SM VCSH BKN050
     FM220800 36012G16KT P6SM BKN050
     FM221500 36012G16KT P6SM FEW250
     FM230100 VRB03KT P6SM SKC=

USA.gov is the U.S. government's official web portal to all federal, state and local government web resources and services.